Time;durP1;ratioP1;P1;durP2;ratioP2;P2;SDS_P1;SDS_P2;PMS_P1;PMS_P2;Temp;Humidity;BMP_temperature;BMP_pressure;BME280_temperature;BME280_humidity;BME280_pressure;Samples;Min_cycle;Max_cycle;Signal;HPM_P1;HPM_P2
2023/03/14 00:02:10;;;;;;;6.88;2.30;;;;;;;13.07;64.45;98870.06;5063907;28;20042;-68
2023/03/14 00:04:36;;;;;;;9.52;2.63;;;;;;;13.11;64.15;98886.97;5066298;28;20147;-69
2023/03/14 00:07:03;;;;;;;9.38;2.20;;;;;;;13.04;63.40;98890.19;5066540;28;20427;-68
2023/03/14 00:09:29;;;;;;;5.70;1.83;;;;;;;13.03;63.46;98874.63;5067449;28;20490;-68
2023/03/14 00:11:55;;;;;;;6.30;1.98;;;;;;;13.05;63.23;98869.56;5067701;28;20048;-69
2023/03/14 00:14:20;;;;;;;6.97;1.60;;;;;;;12.97;62.06;98871.16;5066167;28;20105;-69
2023/03/14 00:16:47;;;;;;;9.85;2.22;;;;;;;12.96;62.54;98874.25;5066921;28;20189;-70
2023/03/14 00:19:13;;;;;;;10.07;1.67;;;;;;;12.98;62.13;98883.94;5065288;28;20024;-69
2023/03/14 00:21:38;;;;;;;7.30;1.70;;;;;;;12.99;61.58;98893.94;5067945;28;20089;-69
2023/03/14 00:24:04;;;;;;;5.95;1.50;;;;;;;12.94;60.75;98894.06;5057946;28;20025;-68
2023/03/14 00:26:29;;;;;;;5.55;1.70;;;;;;;12.88;60.52;98900.88;5060738;28;20036;-69
2023/03/14 00:28:55;;;;;;;9.55;1.98;;;;;;;12.72;60.49;98894.03;5065007;28;20024;-69
2023/03/14 00:31:21;;;;;;;6.28;1.90;;;;;;;12.73;60.90;98893.75;5066193;28;20035;-70
2023/03/14 00:33:47;;;;;;;6.10;1.73;;;;;;;12.76;60.88;98901.44;5065864;28;20040;-68
2023/03/14 00:36:15;;;;;;;5.90;1.52;;;;;;;12.76;61.09;98906.19;5063734;28;20078;-67
2023/03/14 00:38:43;;;;;;;8.88;1.88;;;;;;;12.75;60.76;98908.16;5065710;28;20033;-70
2023/03/14 00:41:11;;;;;;;6.95;2.00;;;;;;;12.76;60.89;98909.78;5059889;28;20036;-68
2023/03/14 00:43:37;;;;;;;7.72;1.27;;;;;;;12.78;60.99;98901.97;5064355;28;20475;-67
2023/03/14 00:46:03;;;;;;;5.82;1.88;;;;;;;12.80;60.71;98909.19;5061073;28;20081;-67
2023/03/14 00:48:28;;;;;;;7.22;1.60;;;;;;;12.82;60.35;98904.13;5067997;28;20116;-68
2023/03/14 00:50:54;;;;;;;6.20;1.67;;;;;;;12.77;60.35;98913.41;5061317;28;20028;-67
2023/03/14 00:53:19;;;;;;;8.10;1.92;;;;;;;12.78;60.49;98912.28;5068983;28;20037;-66
2023/03/14 00:55:45;;;;;;;6.85;1.85;;;;;;;12.81;60.66;98917.22;5065467;28;20052;-69
2023/03/14 00:58:13;;;;;;;5.00;1.63;;;;;;;12.74;60.33;98917.66;5069992;28;20039;-67
2023/03/14 01:00:39;;;;;;;8.48;1.75;;;;;;;12.70;60.53;98904.69;5069217;28;20067;-67
2023/03/14 01:03:04;;;;;;;7.63;1.90;;;;;;;12.79;60.71;98913.94;5070662;28;20118;-67
2023/03/14 01:05:30;;;;;;;10.43;2.33;;;;;;;12.80;60.88;98893.28;5067899;28;20254;-67
2023/03/14 01:07:55;;;;;;;6.63;1.83;;;;;;;12.77;60.44;98894.75;5069111;28;20032;-67
2023/03/14 01:10:21;;;;;;;8.90;2.17;;;;;;;12.80;60.19;98896.06;5064935;28;20535;-67
2023/03/14 01:12:46;;;;;;;4.00;1.23;;;;;;;12.73;60.26;98904.03;5069578;28;20391;-66
2023/03/14 01:15:14;;;;;;;9.80;1.92;;;;;;;12.73;59.74;98893.75;5070532;28;20024;-67
2023/03/14 01:17:39;;;;;;;8.25;1.73;;;;;;;12.77;60.27;98888.34;5070528;28;20467;-67
2023/03/14 01:20:08;;;;;;;9.35;1.80;;;;;;;12.71;59.97;98895.19;5069128;28;20035;-66
2023/03/14 01:22:34;;;;;;;6.25;1.65;;;;;;;12.63;60.25;98887.59;5070520;28;20036;-66
2023/03/14 01:24:59;;;;;;;8.32;2.00;;;;;;;12.65;60.27;98902.81;5069600;28;20108;-66
2023/03/14 01:27:24;;;;;;;6.90;1.67;;;;;;;12.62;59.78;98894.31;5070416;28;20039;-66
2023/03/14 01:29:50;;;;;;;5.45;1.48;;;;;;;12.63;59.71;98893.16;5060823;28;20467;-66
2023/03/14 01:32:16;;;;;;;7.63;1.52;;;;;;;12.59;59.61;98890.19;5067874;28;20032;-66
2023/03/14 01:34:41;;;;;;;7.63;1.95;;;;;;;12.66;60.62;98886.97;5052643;28;20510;-66
2023/03/14 01:37:07;;;;;;;7.60;1.67;;;;;;;12.68;59.81;98879.94;5068742;28;20032;-66
2023/03/14 01:39:33;;;;;;;6.47;1.90;;;;;;;12.61;60.07;98873.16;5051120;28;20523;-66
2023/03/14 01:42:00;;;;;;;5.25;1.38;;;;;;;12.55;60.16;98863.31;5066038;28;20140;-66
2023/03/14 01:44:25;;;;;;;7.00;1.60;;;;;;;12.56;60.22;98871.31;5067848;28;20025;-66
2023/03/14 01:46:51;;;;;;;9.48;1.65;;;;;;;12.53;60.29;98860.81;5062955;28;20472;-67
2023/03/14 01:49:35;;;;;;;7.32;1.85;;;;;;;12.56;60.73;98865.75;5053006;28;21924;-67
2023/03/14 01:52:10;;;;;;;7.22;1.70;;;;;;;12.57;60.87;98859.03;5060040;28;20033;-66
2023/03/14 01:54:41;;;;;;;6.22;1.70;;;;;;;12.62;60.43;98858.13;5051563;28;20040;-66
2023/03/14 01:57:19;;;;;;;10.13;1.80;;;;;;;12.61;60.53;98848.09;5069291;28;20044;-67
2023/03/14 02:00:13;;;;;;;7.57;1.70;;;;;;;12.64;60.89;98844.69;5070313;28;20555;-67
2023/03/14 02:02:47;;;;;;;7.25;1.90;;;;;;;12.59;60.75;98848.44;5061939;28;20037;-67
2023/03/14 02:05:17;;;;;;;10.40;1.98;;;;;;;12.62;60.64;98844.22;5068269;28;20058;-67
2023/03/14 02:07:49;;;;;;;6.22;1.80;;;;;;;12.59;60.48;98848.44;5069310;28;20121;-67
2023/03/14 02:10:18;;;;;;;7.40;1.88;;;;;;;12.59;60.77;98831.75;5069819;28;20060;-66
2023/03/14 02:12:45;;;;;;;9.02;1.73;;;;;;;12.55;61.03;98843.81;5070879;28;20118;-66
2023/03/14 02:15:11;;;;;;;9.32;1.70;;;;;;;12.48;61.17;98850.63;5071502;28;20039;-66
2023/03/14 02:17:37;;;;;;;5.80;1.90;;;;;;;12.55;61.51;98838.25;5073606;28;20028;-66
2023/03/14 02:20:11;;;;;;;7.78;1.85;;;;;;;12.50;61.71;98834.47;5073395;28;20020;-66
2023/03/14 02:22:39;;;;;;;7.68;2.08;;;;;;;12.48;61.40;98839.50;5070069;28;20037;-66
2023/03/14 02:25:07;;;;;;;8.77;2.63;;;;;;;12.52;61.85;98846.09;5073247;28;20028;-66
2023/03/14 02:27:33;;;;;;;7.90;1.90;;;;;;;12.44;61.50;98838.50;5072125;28;20255;-66
2023/03/14 02:30:01;;;;;;;6.03;2.08;;;;;;;12.41;62.18;98844.69;5071231;28;20466;-66
2023/03/14 02:32:31;;;;;;;7.97;2.47;;;;;;;12.40;61.82;98836.66;5071885;28;20497;-66
2023/03/14 02:35:00;;;;;;;10.95;2.00;;;;;;;12.36;62.16;98818.94;5073408;28;20029;-66
2023/03/14 02:37:52;;;;;;;8.48;1.65;;;;;;;12.42;62.42;98815.75;5070305;28;20028;-66
2023/03/14 02:40:17;;;;;;;11.88;2.70;;;;;;;12.42;62.11;98812.97;5068610;28;20040;-66
2023/03/14 02:42:42;;;;;;;8.73;2.00;;;;;;;12.40;62.11;98815.22;5068818;28;20509;-67
2023/03/14 02:45:07;;;;;;;10.25;2.50;;;;;;;12.36;62.22;98822.53;5053458;28;20055;-66
2023/03/14 02:47:34;;;;;;;12.52;2.58;;;;;;;12.38;62.36;98822.22;5058659;28;20036;-66
2023/03/14 02:50:14;;;;;;;10.93;2.55;;;;;;;12.26;62.19;98818.06;5070508;28;20090;-66
2023/03/14 02:52:39;;;;;;;10.98;2.17;;;;;;;12.27;62.34;98816.09;5053932;28;20040;-66
2023/03/14 02:55:07;;;;;;;8.02;2.25;;;;;;;12.30;62.75;98818.25;5052408;28;20021;-66
2023/03/14 02:57:33;;;;;;;8.65;2.15;;;;;;;12.29;62.88;98813.81;5069765;28;20494;-67
2023/03/14 02:59:59;;;;;;;8.10;1.98;;;;;;;12.32;62.79;98817.94;5073212;28;20036;-67
2023/03/14 03:02:25;;;;;;;10.48;2.50;;;;;;;12.27;62.64;98813.31;5071477;28;20051;-67
2023/03/14 03:04:50;;;;;;;8.52;2.55;;;;;;;12.24;62.68;98820.31;5072115;28;20460;-67
2023/03/14 03:07:16;;;;;;;11.48;2.70;;;;;;;12.27;63.22;98825.25;5072435;28;20115;-67
2023/03/14 03:09:41;;;;;;;7.68;2.35;;;;;;;12.27;62.86;98824.44;5070837;28;20356;-66
2023/03/14 03:12:06;;;;;;;8.30;1.83;;;;;;;12.31;62.44;98822.69;5068618;28;20056;-67
2023/03/14 03:14:32;;;;;;;8.25;2.03;;;;;;;12.25;62.66;98835.03;5068652;28;20530;-67
2023/03/14 03:16:57;;;;;;;7.50;2.20;;;;;;;12.24;63.13;98830.63;5072828;28;20445;-67
2023/03/14 03:19:22;;;;;;;7.72;2.00;;;;;;;12.28;62.87;98831.66;5071474;28;20048;-67
2023/03/14 03:21:48;;;;;;;9.32;2.03;;;;;;;12.28;62.71;98828.88;5072505;28;20039;-67
2023/03/14 03:24:13;;;;;;;9.02;2.30;;;;;;;12.28;62.87;98820.53;5066029;28;20040;-67
2023/03/14 03:26:39;;;;;;;11.20;2.15;;;;;;;12.22;62.56;98816.19;5063325;28;20803;-67
2023/03/14 03:29:04;;;;;;;7.40;2.30;;;;;;;12.25;62.97;98815.56;5072408;28;20036;-67
2023/03/14 03:31:29;;;;;;;6.30;2.00;;;;;;;12.28;63.02;98813.00;5072124;28;20107;-67
2023/03/14 03:33:57;;;;;;;7.75;2.25;;;;;;;12.29;63.06;98816.59;5066369;28;20033;-67
2023/03/14 03:36:25;;;;;;;9.05;2.05;;;;;;;12.29;62.46;98820.19;5063599;28;20039;-67
2023/03/14 03:38:50;;;;;;;7.60;1.73;;;;;;;12.28;62.96;98820.53;5073238;28;20052;-67
2023/03/14 03:41:16;;;;;;;8.00;2.15;;;;;;;12.26;62.82;98814.44;5068978;28;20067;-67
2023/03/14 03:43:41;;;;;;;6.43;1.98;;;;;;;12.29;62.39;98813.81;5068486;28;20036;-67
2023/03/14 03:46:07;;;;;;;6.45;1.70;;;;;;;12.25;62.36;98804.44;5062210;28;20452;-67
2023/03/14 03:48:33;;;;;;;7.55;2.20;;;;;;;12.17;62.23;98810.75;5070249;28;20103;-67
2023/03/14 03:50:58;;;;;;;8.80;1.80;;;;;;;12.18;62.63;98795.72;5070469;28;20068;-66
2023/03/14 03:53:24;;;;;;;7.03;1.60;;;;;;;12.20;62.79;98802.63;5072478;28;20086;-67
2023/03/14 03:55:51;;;;;;;7.97;1.75;;;;;;;12.19;62.65;98809.31;5069959;28;20685;-67
2023/03/14 03:58:17;;;;;;;9.60;1.77;;;;;;;12.21;62.61;98798.69;5070849;28;20498;-67
2023/03/14 04:00:42;;;;;;;4.68;1.27;;;;;;;12.22;63.38;98802.28;5068626;28;20036;-67
2023/03/14 04:03:08;;;;;;;7.07;1.65;;;;;;;12.23;63.91;98802.00;5068156;28;20426;-67
2023/03/14 04:05:34;;;;;;;8.02;1.92;;;;;;;12.23;63.97;98792.84;5069549;28;20024;-67
2023/03/14 04:08:00;;;;;;;6.78;1.75;;;;;;;12.19;64.12;98797.38;5070542;28;20466;-67
2023/03/14 04:10:25;;;;;;;5.25;1.70;;;;;;;12.15;64.24;98796.38;5071013;28;20041;-66
2023/03/14 04:12:50;;;;;;;6.97;2.20;;;;;;;12.09;63.71;98790.09;5056145;28;20040;-67
2023/03/14 04:15:16;;;;;;;6.18;2.00;;;;;;;12.08;63.98;98787.63;5062427;28;20032;-66
2023/03/14 04:17:41;;;;;;;6.18;1.63;;;;;;;12.03;63.84;98786.59;5056199;28;20514;-66
2023/03/14 04:20:10;;;;;;;5.13;1.60;;;;;;;11.99;64.11;98799.50;5064755;28;21893;-67
2023/03/14 04:22:36;;;;;;;6.20;1.60;;;;;;;11.97;63.92;98787.03;5070152;28;20170;-66
2023/03/14 04:25:03;;;;;;;4.20;1.60;;;;;;;12.01;64.40;98790.81;5068277;28;20033;-67
2023/03/14 04:27:28;;;;;;;4.32;1.60;;;;;;;11.90;64.63;98793.00;5070978;28;20463;-67
2023/03/14 04:29:54;;;;;;;4.28;1.50;;;;;;;11.88;64.96;98781.38;5068368;28;20043;-66
2023/03/14 04:32:19;;;;;;;5.10;1.55;;;;;;;11.87;65.51;98776.97;5071046;28;20150;-66
2023/03/14 04:34:44;;;;;;;3.40;1.60;;;;;;;11.84;65.46;98785.13;5069434;28;20799;-66
2023/03/14 04:37:12;;;;;;;4.22;1.75;;;;;;;11.80;66.27;98784.88;5066495;28;20044;-66
2023/03/14 04:39:37;;;;;;;5.45;1.50;;;;;;;11.83;66.61;98788.97;5067401;28;20032;-66
2023/03/14 04:42:03;;;;;;;5.05;1.70;;;;;;;11.68;66.88;98781.81;5066106;28;20849;-67
2023/03/14 04:44:28;;;;;;;3.28;1.30;;;;;;;11.72;67.52;98780.06;5049546;28;20106;-67
2023/03/14 04:46:53;;;;;;;2.55;1.40;;;;;;;11.68;67.63;98779.03;5051283;28;20025;-66
2023/03/14 04:49:19;;;;;;;3.35;1.35;;;;;;;11.67;68.20;98782.94;5068750;28;20487;-66
2023/03/14 04:51:45;;;;;;;3.72;1.20;;;;;;;11.69;68.98;98783.44;5066801;28;20032;-66
2023/03/14 04:54:10;;;;;;;4.30;1.30;;;;;;;11.68;69.30;98784.59;5069696;28;20476;-66
2023/03/14 04:56:36;;;;;;;2.47;1.23;;;;;;;11.72;69.36;98786.44;5068542;28;20198;-66
2023/03/14 04:59:02;;;;;;;2.42;1.30;;;;;;;11.68;69.84;98781.81;5069698;28;20109;-66
2023/03/14 05:01:27;;;;;;;5.53;1.35;;;;;;;11.68;70.49;98785.41;5060140;28;20062;-66
2023/03/14 05:03:53;;;;;;;3.70;1.00;;;;;;;11.68;70.25;98785.41;5051061;28;20086;-66
2023/03/14 05:06:18;;;;;;;4.80;1.50;;;;;;;11.66;70.75;98787.66;5065466;28;20025;-67
2023/03/14 05:08:44;;;;;;;3.58;1.27;;;;;;;11.58;71.11;98787.56;5068975;28;20024;-67
2023/03/14 05:11:10;;;;;;;2.95;1.40;;;;;;;11.62;71.22;98777.47;5065459;28;20048;-66
2023/03/14 05:13:35;;;;;;;4.10;1.30;;;;;;;11.60;71.54;98782.56;5067528;28;20410;-66
2023/03/14 05:16:06;;;;;;;4.05;1.40;;;;;;;11.51;71.74;98774.94;5069856;28;20733;-66
2023/03/14 05:18:31;;;;;;;3.30;1.50;;;;;;;11.60;71.48;98782.56;5069498;28;20044;-66
2023/03/14 05:20:57;;;;;;;4.00;1.40;;;;;;;11.64;71.64;98781.59;5067447;28;20028;-66
2023/03/14 05:23:22;;;;;;;3.35;1.50;;;;;;;11.62;71.24;98786.63;5065987;28;20131;-66
2023/03/14 05:25:47;;;;;;;3.95;1.85;;;;;;;11.64;71.81;98778.00;5049468;28;20040;-66
2023/03/14 05:28:12;;;;;;;3.30;1.70;;;;;;;11.64;71.85;98783.56;5058448;28;20534;-66
2023/03/14 05:30:38;;;;;;;4.72;1.40;;;;;;;11.60;71.68;98777.00;5066258;28;20040;-67
2023/03/14 05:33:03;;;;;;;5.13;1.83;;;;;;;11.57;71.89;98766.50;5069895;28;20029;-66
2023/03/14 05:35:28;;;;;;;4.45;1.80;;;;;;;11.60;72.05;98760.31;5070513;28;20032;-66
2023/03/14 05:37:54;;;;;;;4.20;1.77;;;;;;;11.58;71.92;98755.06;5067814;28;20541;-66
2023/03/14 05:40:19;;;;;;;5.32;2.00;;;;;;;11.47;72.64;98757.22;5067859;28;20031;-67
2023/03/14 05:42:44;;;;;;;4.50;1.90;;;;;;;11.50;72.54;98762.16;5067414;28;20361;-66
2023/03/14 05:45:10;;;;;;;3.33;1.67;;;;;;;11.51;72.27;98763.84;5066871;28;20048;-66
2023/03/14 05:47:35;;;;;;;5.65;2.13;;;;;;;11.55;72.38;98764.84;5062878;28;20064;-67
2023/03/14 05:50:01;;;;;;;4.22;1.75;;;;;;;11.55;72.45;98752.88;5073938;28;20033;-66
2023/03/14 05:52:26;;;;;;;6.93;1.92;;;;;;;11.53;72.90;98753.22;5070788;28;20055;-67
2023/03/14 05:54:51;;;;;;;4.45;2.15;;;;;;;11.54;72.96;98763.19;5071055;28;20036;-67
2023/03/14 05:57:16;;;;;;;5.35;1.95;;;;;;;11.53;73.06;98756.00;5060161;28;20543;-67
2023/03/14 05:59:42;;;;;;;3.33;1.88;;;;;;;11.57;73.21;98755.38;5071891;28;20036;-66
2023/03/14 06:02:07;;;;;;;3.50;1.95;;;;;;;11.58;73.35;98748.69;5064826;28;20109;-66
2023/03/14 06:04:32;;;;;;;5.35;2.25;;;;;;;11.56;73.62;98749.00;5070138;28;20029;-67
2023/03/14 06:06:58;;;;;;;4.72;2.20;;;;;;;11.54;73.66;98752.06;5064879;28;20226;-66
2023/03/14 06:09:23;;;;;;;4.05;2.00;;;;;;;11.49;73.99;98746.63;5072646;28;20032;-66
2023/03/14 06:11:49;;;;;;;3.65;2.10;;;;;;;11.55;73.93;98750.97;5072738;28;20048;-66
2023/03/14 06:14:14;;;;;;;4.18;2.22;;;;;;;11.54;73.78;98748.47;5059754;28;20021;-66
2023/03/14 06:16:39;;;;;;;4.35;2.10;;;;;;;11.60;74.09;98743.66;5068692;28;20028;-66
2023/03/14 06:19:04;;;;;;;3.45;2.17;;;;;;;11.56;74.62;98746.22;5069805;28;20372;-66
2023/03/14 06:21:30;;;;;;;4.30;2.40;;;;;;;11.52;74.52;98750.75;5069882;28;20017;-66
2023/03/14 06:23:55;;;;;;;3.85;2.63;;;;;;;11.48;74.80;98756.09;5069616;28;20020;-66
2023/03/14 06:26:21;;;;;;;4.13;2.80;;;;;;;11.52;74.46;98753.53;5072356;28;20029;-65
2023/03/14 06:28:46;;;;;;;7.38;2.47;;;;;;;11.55;74.71;98750.09;5067787;28;20037;-66
2023/03/14 06:31:12;;;;;;;7.28;3.05;;;;;;;11.51;74.76;98752.72;5065288;28;20028;-66
2023/03/14 06:33:37;;;;;;;3.95;2.42;;;;;;;11.48;74.57;98747.78;5068759;28;20475;-67
2023/03/14 06:36:03;;;;;;;5.40;2.58;;;;;;;11.47;74.69;98751.66;5064881;28;20436;-67
2023/03/14 06:38:28;;;;;;;7.10;2.97;;;;;;;11.47;75.08;98753.63;5068819;28;20475;-66
2023/03/14 06:40:53;;;;;;;6.68;3.17;;;;;;;11.47;75.02;98771.13;5069109;28;20132;-66
2023/03/14 06:43:19;;;;;;;4.90;2.65;;;;;;;11.45;75.27;98765.06;5069055;28;20029;-66
2023/03/14 06:45:44;;;;;;;4.57;2.80;;;;;;;11.48;75.35;98758.88;5072834;28;20032;-67
2023/03/14 06:48:09;;;;;;;5.03;2.97;;;;;;;11.40;75.88;98767.94;5070718;28;20032;-67
2023/03/14 06:50:35;;;;;;;4.82;2.80;;;;;;;11.49;75.53;98763.31;5065446;28;20466;-67
2023/03/14 06:53:00;;;;;;;5.50;3.22;;;;;;;11.50;75.15;98766.91;5063915;28;20037;-66
2023/03/14 06:55:26;;;;;;;6.47;2.97;;;;;;;11.57;75.10;98769.28;5059356;28;20085;-66
2023/03/14 06:57:51;;;;;;;5.75;3.40;;;;;;;11.52;75.33;98773.81;5070293;28;20029;-66
2023/03/14 07:00:16;;;;;;;5.20;3.40;;;;;;;11.54;75.55;98774.31;5072663;28;20047;-66
2023/03/14 07:02:42;;;;;;;4.45;3.05;;;;;;;11.56;75.77;98771.22;5070844;28;20471;-66
2023/03/14 07:05:08;;;;;;;4.47;3.20;;;;;;;11.59;75.55;98775.31;5060134;28;20574;-66
2023/03/14 07:07:33;;;;;;;4.50;3.33;;;;;;;11.60;75.77;98788.09;5066609;28;20475;-66
2023/03/14 07:09:58;;;;;;;6.05;3.25;;;;;;;11.60;75.48;98793.66;5062270;28;20032;-65
2023/03/14 07:12:23;;;;;;;4.85;3.20;;;;;;;11.57;75.64;98795.09;5060996;28;20036;-66
2023/03/14 07:14:49;;;;;;;5.30;3.13;;;;;;;11.59;75.42;98798.38;5063104;28;20025;-66
2023/03/14 07:17:14;;;;;;;6.10;2.90;;;;;;;11.58;75.75;98795.91;5065792;28;20581;-66
2023/03/14 07:19:39;;;;;;;6.43;3.30;;;;;;;11.53;76.41;98811.56;5070372;28;20032;-66
2023/03/14 07:22:05;;;;;;;4.60;3.08;;;;;;;11.59;76.00;98817.00;5072017;28;20036;-66
2023/03/14 07:24:31;;;;;;;4.47;2.90;;;;;;;11.56;76.13;98821.25;5062455;28;20123;-66
2023/03/14 07:26:56;;;;;;;5.30;2.92;;;;;;;11.54;76.06;98835.41;5061765;28;20044;-66
2023/03/14 07:29:21;;;;;;;4.82;3.00;;;;;;;11.57;76.26;98886.78;5061343;28;20040;-67
2023/03/14 07:31:47;;;;;;;4.13;2.10;;;;;;;11.46;73.80;98904.78;5057086;28;20038;-66
2023/03/14 07:34:12;;;;;;;1.42;1.10;;;;;;;11.22;71.54;98927.97;5062776;28;20099;-65
2023/03/14 07:36:37;;;;;;;4.75;1.00;;;;;;;11.04;71.03;98926.91;5067266;28;20048;-61
2023/03/14 07:39:04;;;;;;;1.15;1.05;;;;;;;10.98;71.60;98933.66;5057636;28;20465;-65
2023/03/14 07:41:29;;;;;;;1.55;1.10;;;;;;;10.89;71.04;98945.78;5057913;28;20441;-65
2023/03/14 07:43:54;;;;;;;1.90;1.00;;;;;;;10.84;71.25;98943.88;5051784;28;20528;-65
2023/03/14 07:46:20;;;;;;;1.67;0.82;;;;;;;10.74;70.86;98961.50;5047362;28;20124;-66
2023/03/14 07:48:45;;;;;;;1.88;1.00;;;;;;;10.69;71.60;98969.94;5054915;28;20094;-66
2023/03/14 07:51:10;;;;;;;1.55;0.95;;;;;;;10.76;71.22;98987.00;5064883;28;20036;-64
2023/03/14 07:53:36;;;;;;;2.55;1.10;;;;;;;10.77;71.36;98985.91;5060457;28;20068;-67
2023/03/14 07:56:01;;;;;;;1.00;0.90;;;;;;;10.80;70.84;98993.59;5054240;28;20029;-66
2023/03/14 07:58:26;;;;;;;1.88;1.00;;;;;;;10.82;70.54;98999.69;5049794;28;20037;-66
2023/03/14 08:00:52;;;;;;;1.23;0.93;;;;;;;10.82;70.54;99009.97;5047972;28;20025;-64
2023/03/14 08:03:18;;;;;;;3.25;1.45;;;;;;;10.77;70.66;99021.16;5060146;28;20027;-65
2023/03/14 08:05:46;;;;;;;2.30;1.20;;;;;;;10.79;70.73;99035.53;5058907;28;20032;-65
2023/03/14 08:08:12;;;;;;;2.10;1.40;;;;;;;10.76;70.98;99028.63;5048069;28;20025;-65
2023/03/14 08:10:37;;;;;;;2.83;1.30;;;;;;;10.75;70.30;99037.25;5052430;28;20048;-65
2023/03/14 08:13:02;;;;;;;2.58;1.50;;;;;;;10.73;70.64;99054.22;5063814;28;20035;-63
2023/03/14 08:15:29;;;;;;;1.70;1.48;;;;;;;10.69;70.58;99060.63;5051481;28;20035;-66
2023/03/14 08:17:55;;;;;;;2.60;1.65;;;;;;;10.68;71.12;99072.88;5064579;28;20036;-65
2023/03/14 08:20:22;;;;;;;2.42;1.50;;;;;;;10.68;70.65;99083.97;5062158;28;20039;-64
2023/03/14 08:22:48;;;;;;;3.25;1.38;;;;;;;10.69;70.31;99088.38;5069863;28;20021;-65
2023/03/14 08:25:14;;;;;;;1.50;1.30;;;;;;;10.68;70.31;99103.38;5069651;28;20180;-64
2023/03/14 08:27:40;;;;;;;3.50;1.27;;;;;;;10.69;70.18;99116.13;5069377;28;20024;-64
2023/03/14 08:30:07;;;;;;;2.92;1.10;;;;;;;10.61;70.36;99128.75;5067014;28;20100;-64
2023/03/14 08:32:32;;;;;;;3.53;1.00;;;;;;;10.66;70.63;99130.63;5057065;28;20036;-63
2023/03/14 08:34:58;;;;;;;1.73;1.13;;;;;;;10.64;69.96;99143.94;5067635;28;20033;-63
2023/03/14 08:37:24;;;;;;;2.35;1.20;;;;;;;10.64;70.25;99160.59;5054360;28;20028;-64
2023/03/14 08:39:50;;;;;;;3.25;1.20;;;;;;;10.66;70.11;99163.91;5068239;28;20123;-62
2023/03/14 08:42:15;;;;;;;3.42;1.10;;;;;;;10.63;69.78;99159.78;5064142;28;20101;-63
2023/03/14 08:44:41;;;;;;;3.15;1.10;;;;;;;10.64;69.55;99171.69;5060172;28;20029;-63
2023/03/14 08:47:06;;;;;;;2.60;1.25;;;;;;;10.58;69.03;99184.81;5057097;28;20052;-63
2023/03/14 08:49:32;;;;;;;3.67;1.70;;;;;;;10.54;69.39;99183.75;5064886;28;20107;-63
2023/03/14 08:51:58;;;;;;;5.22;1.58;;;;;;;10.50;69.46;99193.78;5057245;28;20029;-63
2023/03/14 08:54:23;;;;;;;2.95;1.80;;;;;;;10.53;69.74;99201.50;5049911;28;20064;-64
2023/03/14 08:56:49;;;;;;;4.25;1.55;;;;;;;10.54;69.10;99206.75;5060359;28;20481;-64
2023/03/14 08:59:14;;;;;;;6.18;1.92;;;;;;;10.60;69.52;99217.81;5069490;28;20490;-65
2023/03/14 09:01:39;;;;;;;2.75;1.63;;;;;;;10.59;69.17;99224.47;5067662;28;20464;-65
2023/03/14 09:04:05;;;;;;;4.70;1.73;;;;;;;10.59;69.54;99236.41;5054676;28;20115;-65
2023/03/14 09:06:30;;;;;;;4.63;1.70;;;;;;;10.61;69.16;99239.72;5064895;28;20122;-66
2023/03/14 09:08:56;;;;;;;4.20;1.48;;;;;;;10.60;69.51;99249.13;5054171;28;20063;-66
2023/03/14 09:11:21;;;;;;;2.58;1.70;;;;;;;10.62;69.99;99249.69;5058002;28;20053;-65
2023/03/14 09:13:46;;;;;;;3.10;1.67;;;;;;;10.66;69.82;99266.59;5064988;28;20040;-65
2023/03/14 09:16:12;;;;;;;3.15;1.77;;;;;;;10.58;69.65;99273.59;5063969;28;20028;-64
2023/03/14 09:18:37;;;;;;;2.22;1.55;;;;;;;10.61;69.30;99284.13;5065630;28;20511;-64
2023/03/14 09:21:02;;;;;;;3.60;1.40;;;;;;;10.65;69.94;99293.50;5050080;28;20052;-63
2023/03/14 09:23:28;;;;;;;4.00;1.75;;;;;;;10.69;70.06;99299.28;5073157;28;20032;-62
2023/03/14 09:25:57;;;;;;;3.50;1.75;;;;;;;10.74;69.94;99300.06;5067554;28;20031;-67
2023/03/14 09:28:24;;;;;;;3.78;1.20;;;;;;;10.69;69.74;99313.16;5058242;28;20093;-65
2023/03/14 09:30:50;;;;;;;3.35;1.50;;;;;;;10.71;70.30;99328.41;5062421;28;20033;-64
2023/03/14 09:33:16;;;;;;;4.53;1.52;;;;;;;10.60;70.11;99329.59;5062746;28;20468;-59
2023/03/14 09:35:41;;;;;;;2.65;1.45;;;;;;;10.52;69.59;99347.69;5063548;28;20036;-64
2023/03/14 09:38:07;;;;;;;5.18;1.45;;;;;;;10.56;70.55;99357.09;5072978;28;20146;-64
2023/03/14 09:40:36;;;;;;;1.63;1.00;;;;;;;10.47;68.43;99389.34;5066914;28;20042;-65
2023/03/14 09:43:02;;;;;;;2.35;1.00;;;;;;;10.32;67.54;99401.38;5057697;28;20034;-64
2023/03/14 09:45:34;;;;;;;3.85;1.65;;;;;;;10.22;68.57;99401.44;5064067;28;20042;-63
2023/03/14 09:48:01;;;;;;;2.00;1.20;;;;;;;10.13;67.96;99435.56;5073446;28;20051;-63
2023/03/14 09:50:35;;;;;;;1.50;0.80;;;;;;;10.04;67.41;99450.03;5082124;28;20032;-63
2023/03/14 09:53:15;;;;;;;1.02;0.65;;;;;;;10.01;65.55;99460.84;5073218;28;20028;-64
2023/03/14 09:55:42;;;;;;;1.20;0.70;;;;;;;9.90;65.04;99473.91;5060035;28;20063;-65
2023/03/14 09:58:18;;;;;;;2.42;0.73;;;;;;;9.94;65.76;99485.25;5066347;28;20433;-63
2023/03/14 10:00:44;;;;;;;1.17;0.95;;;;;;;9.86;65.46;99492.22;5068845;28;20123;-62
2023/03/14 10:03:12;;;;;;;0.77;0.77;;;;;;;9.92;64.85;99504.13;5065379;28;20108;-62
2023/03/14 10:05:39;;;;;;;2.53;0.90;;;;;;;9.97;64.69;99520.72;5068544;28;20040;-62
2023/03/14 10:08:05;;;;;;;1.88;1.15;;;;;;;9.94;64.74;99524.06;5067928;28;20040;-62
2023/03/14 10:10:31;;;;;;;3.95;1.58;;;;;;;9.97;64.42;99535.41;5069079;28;20051;-63
2023/03/14 10:12:58;;;;;;;2.47;0.98;;;;;;;9.97;63.93;99552.06;5061678;28;20032;-63
2023/03/14 10:15:34;;;;;;;3.58;1.38;;;;;;;10.08;64.21;99567.56;5056901;28;20068;-64
2023/03/14 10:18:02;;;;;;;5.30;1.30;;;;;;;10.14;63.67;99573.06;5064241;28;20483;-63
2023/03/14 10:20:33;;;;;;;3.13;1.00;;;;;;;10.18;64.75;99586.13;5072331;28;20020;-63
2023/03/14 10:23:29;;;;;;;3.25;0.95;;;;;;;10.26;64.69;99595.84;5072474;28;20107;-63
2023/03/14 10:26:11;;;;;;;3.63;1.20;;;;;;;10.23;63.94;99610.22;5068135;28;20044;-64
2023/03/14 10:28:45;;;;;;;5.28;1.48;;;;;;;10.24;63.25;99611.88;5057011;28;20025;-62
2023/03/14 10:31:10;;;;;;;5.55;2.00;;;;;;;10.05;63.09;99631.03;5054754;28;20041;-63
2023/03/14 10:33:37;;;;;;;5.40;1.98;;;;;;;10.00;63.76;99640.19;5063357;28;20036;-63
2023/03/14 10:36:14;;;;;;;3.83;1.55;;;;;;;9.96;63.96;99658.50;5068710;28;20040;-63
2023/03/14 10:38:40;;;;;;;6.65;1.58;;;;;;;9.90;64.15;99656.81;5050815;28;20132;-64
2023/03/14 10:41:18;;;;;;;7.13;1.50;;;;;;;10.01;63.51;99664.03;5064524;28;20495;-64
2023/03/14 10:43:44;;;;;;;3.67;1.42;;;;;;;10.00;61.90;99667.91;5069054;28;20514;-64
2023/03/14 10:46:15;;;;;;;9.32;2.08;;;;;;;9.79;60.02;99686.50;5059897;28;20114;-64
2023/03/14 10:48:41;;;;;;;11.00;2.33;;;;;;;9.80;60.90;99701.19;5056028;28;20029;-64
2023/03/14 10:51:11;;;;;;;10.27;1.90;;;;;;;9.81;61.57;99709.22;5067814;28;20071;-64
2023/03/14 10:53:49;;;;;;;9.90;2.10;;;;;;;9.81;62.69;99727.78;5055252;28;20044;-64
2023/03/14 10:56:20;;;;;;;11.63;2.25;;;;;;;9.88;62.56;99739.44;5064268;28;20064;-64
2023/03/14 10:58:48;;;;;;;8.30;2.10;;;;;;;9.87;62.63;99751.63;5059753;28;20024;-64
2023/03/14 11:01:33;;;;;;;7.97;2.10;;;;;;;9.88;63.07;99758.00;5062516;28;20042;-64
2023/03/14 11:04:31;;;;;;;6.15;2.22;;;;;;;9.78;63.39;99769.91;5064398;28;20032;-63
2023/03/14 11:07:08;;;;;;;14.32;2.72;;;;;;;9.77;63.28;99762.69;5061973;28;20102;-64
2023/03/14 11:09:58;;;;;;;14.32;3.30;;;;;;;9.76;62.40;99778.50;5049880;28;20028;-64
2023/03/14 11:12:41;;;;;;;14.75;3.47;;;;;;;9.69;62.86;99794.53;5060622;28;20063;-63
2023/03/14 11:15:24;;;;;;;11.43;2.88;;;;;;;9.74;63.42;99805.63;5060915;28;20753;-61
2023/03/14 11:18:08;;;;;;;;;;;;;;;9.92;63.71;99804.31;5064732;28;20852;-63
2023/03/14 11:21:12;;;;;;;9.77;2.40;;;;;;;9.85;63.26;99825.91;5068240;28;19916;-63
2023/03/14 11:23:37;;;;;;;13.27;2.85;;;;;;;9.82;64.02;99831.97;5052148;28;20036;-63
2023/03/14 11:26:15;;;;;;;11.15;2.65;;;;;;;9.80;64.20;99835.03;5057364;28;20028;-63
2023/03/14 11:28:48;;;;;;;11.63;2.38;;;;;;;9.84;63.60;99846.41;5057426;28;20074;-63
2023/03/14 11:31:14;;;;;;;12.50;2.70;;;;;;;9.81;63.86;99852.50;5049654;28;20574;-63
2023/03/14 11:34:13;;;;;;;12.85;2.92;;;;;;;9.87;63.92;99865.28;5065299;28;20111;-63
2023/03/14 11:36:52;;;;;;;15.95;3.33;;;;;;;9.79;64.00;99887.97;5062567;28;20098;-64